DLH23C EDDF-LPPT
Flight info
| Callsign | DLH23C |
|---|---|
| Flight time | 2h 51m |
| Altitude | 31000 |
| Route | SOBRA2L/18 SOBRA Y180 DIK UN857 TOLVU DCT RAPOR DCT GIMER DCT ESTOC UT300 PON UN872 ERIGA UZ218 FUJTI DCT ATLEN DCT ABUPI DCT XAMAX |
| Aircraft | A321/M-SDE2E3FGIJ1LORWXYZ/HB1 |
Departure
| Time | 2026-05-07 16:21 |
|---|---|
| Airport | Frankfurt Main Airport (EDDF) |
Arrival
| Time | 2026-05-07 19:12 |
|---|---|
| Airport | Lisbon Humberto Delgado Airport (LPPT) |
| Time | Latitude | Longitude | Altitude | Speed | Heading |
|---|---|---|---|---|---|
| 2026-05-07 15:35 | 50.04884 | 8.57153 | 363 ft | 0 kts | 161° |
| 2026-05-07 15:57 | 50.04882 | 8.57153 | 356 ft | 1 kts | 161° |
| 2026-05-07 15:57 | 50.04880 | 8.57155 | 363 ft | 0 kts | 161° |
| 2026-05-07 16:05 | 50.04878 | 8.57155 | 356 ft | 0 kts | 161° |
| 2026-05-07 16:05 | 50.04877 | 8.57156 | 356 ft | 1 kts | 161° |
| 2026-05-07 16:05 | 50.04876 | 8.57156 | 356 ft | 0 kts | 161° |
| 2026-05-07 16:07 | 50.04868 | 8.57158 | 361 ft | 3 kts | 178° |
| 2026-05-07 16:07 | 50.04848 | 8.57119 | 356 ft | 8 kts | 251° |
| 2026-05-07 16:07 | 50.04813 | 8.57048 | 356 ft | 9 kts | 210° |
| 2026-05-07 16:07 | 50.04752 | 8.57005 | 358 ft | 10 kts | 204° |
| 2026-05-07 16:08 | 50.04683 | 8.56956 | 362 ft | 11 kts | 205° |
| 2026-05-07 16:08 | 50.04607 | 8.56911 | 356 ft | 12 kts | 193° |
| 2026-05-07 16:08 | 50.04541 | 8.56887 | 363 ft | 8 kts | 193° |
| 2026-05-07 16:08 | 50.04482 | 8.56865 | 361 ft | 9 kts | 193° |
| 2026-05-07 16:09 | 50.04442 | 8.56789 | 365 ft | 10 kts | 250° |
| 2026-05-07 16:09 | 50.04414 | 8.56669 | 358 ft | 13 kts | 250° |
| 2026-05-07 16:09 | 50.04381 | 8.56530 | 359 ft | 15 kts | 250° |
| 2026-05-07 16:09 | 50.04343 | 8.56372 | 361 ft | 13 kts | 250° |
| 2026-05-07 16:10 | 50.04310 | 8.56231 | 359 ft | 15 kts | 250° |
| 2026-05-07 16:10 | 50.04300 | 8.56191 | 358 ft | 1 kts | 249° |
| 2026-05-07 16:10 | 50.04294 | 8.56168 | 360 ft | 3 kts | 249° |
| 2026-05-07 16:10 | 50.04287 | 8.56137 | 356 ft | 4 kts | 249° |
| 2026-05-07 16:11 | 50.04263 | 8.56038 | 357 ft | 14 kts | 249° |
| 2026-05-07 16:11 | 50.04228 | 8.55891 | 356 ft | 15 kts | 249° |
| 2026-05-07 16:11 | 50.04187 | 8.55722 | 357 ft | 18 kts | 249° |
| 2026-05-07 16:11 | 50.04141 | 8.55532 | 355 ft | 20 kts | 249° |
| 2026-05-07 16:12 | 50.04094 | 8.55330 | 358 ft | 20 kts | 250° |
| 2026-05-07 16:12 | 50.04046 | 8.55130 | 357 ft | 20 kts | 250° |
| 2026-05-07 16:12 | 50.03997 | 8.54924 | 359 ft | 21 kts | 250° |
| 2026-05-07 16:12 | 50.03963 | 8.54778 | 353 ft | 22 kts | 250° |
| 2026-05-07 16:13 | 50.03907 | 8.54545 | 356 ft | 24 kts | 249° |
| 2026-05-07 16:13 | 50.03808 | 8.54254 | 347 ft | 18 kts | 237° |
| 2026-05-07 16:13 | 50.03763 | 8.54068 | 352 ft | 19 kts | 249° |
| 2026-05-07 16:13 | 50.03730 | 8.53934 | 348 ft | 20 kts | 250° |
| 2026-05-07 16:14 | 50.03681 | 8.53724 | 348 ft | 21 kts | 250° |
| 2026-05-07 16:14 | 50.03625 | 8.53505 | 341 ft | 22 kts | 250° |
| 2026-05-07 16:14 | 50.03571 | 8.53277 | 336 ft | 23 kts | 250° |
| 2026-05-07 16:14 | 50.03529 | 8.53103 | 334 ft | 15 kts | 249° |
| 2026-05-07 16:15 | 50.03498 | 8.52976 | 335 ft | 10 kts | 249° |
| 2026-05-07 16:15 | 50.03468 | 8.52863 | 333 ft | 12 kts | 245° |
| 2026-05-07 16:15 | 50.03439 | 8.52754 | 333 ft | 3 kts | 250° |
| 2026-05-07 16:15 | 50.03432 | 8.52724 | 331 ft | 0 kts | 250° |
| 2026-05-07 16:16 | 50.03432 | 8.52722 | 331 ft | 1 kts | 250° |
| 2026-05-07 16:16 | 50.03427 | 8.52703 | 333 ft | 3 kts | 250° |
| 2026-05-07 16:17 | 50.03419 | 8.52666 | 332 ft | 5 kts | 250° |
| 2026-05-07 16:17 | 50.03406 | 8.52614 | 336 ft | 5 kts | 248° |
| 2026-05-07 16:17 | 50.03375 | 8.52595 | 334 ft | 6 kts | 179° |
| 2026-05-07 16:17 | 50.03371 | 8.52595 | 334 ft | 0 kts | 178° |
| 2026-05-07 16:20 | 50.03369 | 8.52595 | 335 ft | 2 kts | 178° |
| 2026-05-07 16:20 | 50.03187 | 8.52596 | 336 ft | 62 kts | 180° |
| 2026-05-07 16:20 | 50.02525 | 8.52599 | 333 ft | 128 kts | 180° |
| 2026-05-07 16:20 | 50.01450 | 8.52607 | 369 ft | 176 kts | 179° |
| 2026-05-07 16:21 | 50.00251 | 8.52636 | 1093 ft | 171 kts | 180° |
| 2026-05-07 16:21 | 49.99048 | 8.52706 | 1751 ft | 176 kts | 176° |
| 2026-05-07 16:21 | 49.97743 | 8.52789 | 2034 ft | 198 kts | 177° |
| 2026-05-07 16:21 | 49.96321 | 8.52887 | 2451 ft | 210 kts | 177° |
| 2026-05-07 16:22 | 49.94804 | 8.52999 | 2779 ft | 228 kts | 177° |
| 2026-05-07 16:22 | 49.93147 | 8.53109 | 3164 ft | 241 kts | 178° |
| 2026-05-07 16:22 | 49.91477 | 8.53220 | 4027 ft | 239 kts | 179° |
| 2026-05-07 16:22 | 49.89835 | 8.53336 | 4838 ft | 240 kts | 179° |
| 2026-05-07 16:23 | 49.88155 | 8.53428 | 5578 ft | 242 kts | 180° |
| 2026-05-07 16:23 | 49.86487 | 8.53080 | 6214 ft | 248 kts | 200° |
| 2026-05-07 16:23 | 49.84791 | 8.52099 | 6519 ft | 269 kts | 202° |
| 2026-05-07 16:23 | 49.83018 | 8.51073 | 7108 ft | 276 kts | 202° |
| 2026-05-07 16:24 | 49.81198 | 8.50055 | 7796 ft | 279 kts | 202° |
| 2026-05-07 16:24 | 49.79392 | 8.49027 | 8552 ft | 280 kts | 202° |
| 2026-05-07 16:24 | 49.77666 | 8.47648 | 9262 ft | 280 kts | 222° |
| 2026-05-07 16:24 | 49.76483 | 8.45284 | 9917 ft | 280 kts | 246° |
| 2026-05-07 16:25 | 49.76002 | 8.42377 | 10500 ft | 284 kts | 267° |
| 2026-05-07 16:25 | 49.76253 | 8.39259 | 10699 ft | 302 kts | 284° |
| 2026-05-07 16:25 | 49.76788 | 8.36055 | 10909 ft | 319 kts | 284° |
| 2026-05-07 16:25 | 49.77341 | 8.32649 | 11161 ft | 334 kts | 284° |
| 2026-05-07 16:26 | 49.77907 | 8.29087 | 11475 ft | 344 kts | 284° |
| 2026-05-07 16:26 | 49.78482 | 8.25513 | 12309 ft | 340 kts | 284° |
| 2026-05-07 16:26 | 49.79061 | 8.21941 | 12871 ft | 344 kts | 284° |
| 2026-05-07 16:26 | 49.79644 | 8.18345 | 13020 ft | 344 kts | 284° |
| 2026-05-07 16:27 | 49.80229 | 8.14722 | 13371 ft | 348 kts | 284° |
| 2026-05-07 16:27 | 49.80815 | 8.11082 | 14007 ft | 350 kts | 284° |
| 2026-05-07 16:27 | 49.81393 | 8.07462 | 14573 ft | 351 kts | 283° |
| 2026-05-07 16:27 | 49.81978 | 8.03780 | 15129 ft | 354 kts | 283° |
| 2026-05-07 16:28 | 49.82581 | 7.99961 | 15332 ft | 368 kts | 283° |
| 2026-05-07 16:28 | 49.83189 | 7.96087 | 15460 ft | 382 kts | 283° |
| 2026-05-07 16:28 | 49.83825 | 7.92023 | 15603 ft | 395 kts | 283° |
| 2026-05-07 16:28 | 49.84384 | 7.87801 | 15717 ft | 406 kts | 275° |
| 2026-05-07 16:29 | 49.84567 | 7.83394 | 15932 ft | 414 kts | 273° |
| 2026-05-07 16:29 | 49.84732 | 7.78924 | 16320 ft | 417 kts | 273° |
| 2026-05-07 16:29 | 49.84891 | 7.74442 | 16739 ft | 419 kts | 273° |
| 2026-05-07 16:29 | 49.85049 | 7.69913 | 17175 ft | 422 kts | 273° |
| 2026-05-07 16:30 | 49.85205 | 7.65364 | 17600 ft | 424 kts | 272° |
| 2026-05-07 16:30 | 49.85363 | 7.60785 | 18015 ft | 426 kts | 272° |
| 2026-05-07 16:30 | 49.85521 | 7.56182 | 18414 ft | 429 kts | 272° |
| 2026-05-07 16:30 | 49.85677 | 7.51557 | 18767 ft | 431 kts | 272° |
| 2026-05-07 16:31 | 49.85833 | 7.46911 | 19126 ft | 433 kts | 272° |
| 2026-05-07 16:31 | 49.85991 | 7.42237 | 19476 ft | 435 kts | 272° |
| 2026-05-07 16:31 | 49.86146 | 7.37545 | 19837 ft | 437 kts | 272° |
| 2026-05-07 16:31 | 49.86301 | 7.32820 | 20196 ft | 439 kts | 272° |
| 2026-05-07 16:32 | 49.86454 | 7.28075 | 20554 ft | 441 kts | 272° |
| 2026-05-07 16:32 | 49.86604 | 7.23302 | 20926 ft | 443 kts | 272° |
| 2026-05-07 16:32 | 49.86753 | 7.18504 | 21284 ft | 445 kts | 272° |
| 2026-05-07 16:32 | 49.86900 | 7.13768 | 21637 ft | 447 kts | 272° |
| 2026-05-07 16:33 | 49.87046 | 7.08916 | 21993 ft | 449 kts | 272° |
| 2026-05-07 16:33 | 49.87189 | 7.04065 | 22326 ft | 451 kts | 272° |
| 2026-05-07 16:33 | 49.87333 | 6.99182 | 22647 ft | 452 kts | 272° |
| 2026-05-07 16:33 | 49.87474 | 6.94346 | 22949 ft | 454 kts | 272° |
| 2026-05-07 16:34 | 49.87616 | 6.89435 | 23225 ft | 456 kts | 272° |
| 2026-05-07 16:34 | 49.87758 | 6.84516 | 23495 ft | 457 kts | 272° |
| 2026-05-07 16:34 | 49.87896 | 6.79582 | 23733 ft | 459 kts | 272° |
| 2026-05-07 16:34 | 49.88032 | 6.74635 | 23943 ft | 460 kts | 271° |
| 2026-05-07 16:35 | 49.88163 | 6.69677 | 24180 ft | 460 kts | 271° |
| 2026-05-07 16:35 | 49.88292 | 6.64720 | 24474 ft | 459 kts | 271° |
| 2026-05-07 16:35 | 49.88417 | 6.59836 | 24757 ft | 458 kts | 271° |
| 2026-05-07 16:35 | 49.88542 | 6.54897 | 25057 ft | 457 kts | 271° |
| 2026-05-07 16:36 | 49.88667 | 6.49975 | 25357 ft | 456 kts | 271° |
| 2026-05-07 16:36 | 49.88792 | 6.45042 | 25654 ft | 456 kts | 272° |
| 2026-05-07 16:36 | 49.88915 | 6.40122 | 25964 ft | 455 kts | 271° |
| 2026-05-07 16:36 | 49.89033 | 6.35226 | 26266 ft | 454 kts | 271° |
| 2026-05-07 16:37 | 49.89133 | 6.30376 | 26543 ft | 454 kts | 269° |
| 2026-05-07 16:37 | 49.88892 | 6.25490 | 26838 ft | 453 kts | 261° |
| 2026-05-07 16:37 | 49.88178 | 6.20748 | 27125 ft | 452 kts | 252° |
| 2026-05-07 16:37 | 49.87034 | 6.16202 | 27424 ft | 452 kts | 246° |
| 2026-05-07 16:38 | 49.85581 | 6.11886 | 27704 ft | 452 kts | 238° |
| 2026-05-07 16:38 | 49.83790 | 6.07883 | 27998 ft | 452 kts | 235° |
| 2026-05-07 16:38 | 49.81977 | 6.03961 | 28306 ft | 451 kts | 235° |
| 2026-05-07 16:38 | 49.80155 | 6.00004 | 28603 ft | 451 kts | 235° |
| 2026-05-07 16:39 | 49.78335 | 5.96036 | 28936 ft | 450 kts | 235° |
| 2026-05-07 16:39 | 49.76527 | 5.92097 | 29243 ft | 449 kts | 235° |
| 2026-05-07 16:39 | 49.74792 | 5.88084 | 29542 ft | 448 kts | 241° |
| 2026-05-07 16:39 | 49.73429 | 5.83747 | 29847 ft | 446 kts | 249° |
| 2026-05-07 16:40 | 49.72376 | 5.79230 | 30147 ft | 445 kts | 251° |
| 2026-05-07 16:40 | 49.71347 | 5.74775 | 30410 ft | 445 kts | 251° |
| 2026-05-07 16:40 | 49.70299 | 5.70259 | 30682 ft | 444 kts | 251° |
| 2026-05-07 16:40 | 49.69254 | 5.65785 | 30957 ft | 443 kts | 251° |
| 2026-05-07 16:41 | 49.68210 | 5.61321 | 31231 ft | 442 kts | 251° |
| 2026-05-07 16:41 | 49.67165 | 5.56861 | 31512 ft | 440 kts | 251° |
| 2026-05-07 16:41 | 49.66126 | 5.52421 | 31787 ft | 439 kts | 251° |
| 2026-05-07 16:41 | 49.65087 | 5.47997 | 32057 ft | 438 kts | 251° |
| 2026-05-07 16:42 | 49.64044 | 5.43580 | 32334 ft | 437 kts | 251° |
| 2026-05-07 16:42 | 49.63004 | 5.39182 | 32610 ft | 436 kts | 250° |
| 2026-05-07 16:42 | 49.61975 | 5.34789 | 32897 ft | 434 kts | 251° |
| 2026-05-07 16:42 | 49.60998 | 5.30391 | 33186 ft | 433 kts | 252° |
| 2026-05-07 16:43 | 49.60060 | 5.25984 | 33455 ft | 432 kts | 253° |
| 2026-05-07 16:43 | 49.59145 | 5.21581 | 33720 ft | 431 kts | 253° |
| 2026-05-07 16:43 | 49.58281 | 5.17165 | 33963 ft | 430 kts | 255° |
| 2026-05-07 16:44 | 49.56730 | 5.08216 | 34052 ft | 435 kts | 256° |
| 2026-05-07 16:44 | 49.55218 | 4.99186 | 34054 ft | 436 kts | 256° |
| 2026-05-07 16:45 | 49.53638 | 4.90183 | 34054 ft | 436 kts | 255° |
| 2026-05-07 16:45 | 49.52025 | 4.81261 | 34051 ft | 435 kts | 255° |
| 2026-05-07 16:46 | 49.50394 | 4.72288 | 34053 ft | 436 kts | 255° |
| 2026-05-07 16:46 | 49.48757 | 4.63302 | 34064 ft | 437 kts | 255° |
| 2026-05-07 16:47 | 49.47118 | 4.54314 | 34072 ft | 437 kts | 255° |
| 2026-05-07 16:47 | 49.45472 | 4.45317 | 34076 ft | 437 kts | 255° |
| 2026-05-07 16:48 | 49.43821 | 4.36330 | 34065 ft | 437 kts | 254° |
| 2026-05-07 16:48 | 49.42155 | 4.27353 | 34072 ft | 437 kts | 254° |
| 2026-05-07 16:49 | 49.40485 | 4.18381 | 34076 ft | 437 kts | 254° |
| 2026-05-07 16:49 | 49.38810 | 4.09414 | 34077 ft | 437 kts | 254° |
| 2026-05-07 16:50 | 49.37138 | 4.00524 | 34054 ft | 434 kts | 254° |
| 2026-05-07 16:50 | 49.35577 | 3.91576 | 34049 ft | 434 kts | 257° |
| 2026-05-07 16:51 | 49.34334 | 3.82524 | 34051 ft | 434 kts | 258° |
| 2026-05-07 16:51 | 49.33137 | 3.73457 | 34045 ft | 434 kts | 258° |
| 2026-05-07 16:52 | 49.31854 | 3.64413 | 34153 ft | 434 kts | 257° |
| 2026-05-07 16:52 | 49.31187 | 3.59904 | 34332 ft | 434 kts | 257° |
| 2026-05-07 16:52 | 49.30521 | 3.55403 | 34506 ft | 434 kts | 257° |
| 2026-05-07 16:52 | 49.29854 | 3.50893 | 34661 ft | 434 kts | 257° |
| 2026-05-07 16:53 | 49.29190 | 3.46384 | 34813 ft | 434 kts | 257° |
| 2026-05-07 16:53 | 49.28525 | 3.41870 | 34958 ft | 434 kts | 257° |
| 2026-05-07 16:53 | 49.27863 | 3.37361 | 35105 ft | 434 kts | 257° |
| 2026-05-07 16:53 | 49.27198 | 3.32846 | 35248 ft | 435 kts | 257° |
| 2026-05-07 16:54 | 49.26531 | 3.28333 | 35392 ft | 435 kts | 257° |
| 2026-05-07 16:54 | 49.25859 | 3.23821 | 35519 ft | 435 kts | 257° |
| 2026-05-07 16:54 | 49.25185 | 3.19313 | 35669 ft | 435 kts | 257° |
| 2026-05-07 16:54 | 49.24511 | 3.14798 | 35817 ft | 435 kts | 257° |
| 2026-05-07 16:55 | 49.23839 | 3.10289 | 35986 ft | 435 kts | 257° |
| 2026-05-07 16:55 | 49.22520 | 3.01564 | 36049 ft | 436 kts | 256° |
| 2026-05-07 16:55 | 49.21832 | 2.97040 | 35150 ft | 436 kts | 257° |
| 2026-05-07 16:56 | 49.21147 | 2.92523 | 35329 ft | 436 kts | 253° |
| 2026-05-07 16:56 | 49.20463 | 2.88018 | 35521 ft | 434 kts | 252° |
| 2026-05-07 16:56 | 49.19099 | 2.79040 | 35900 ft | 433 kts | 255° |
| 2026-05-07 16:57 | 49.18419 | 2.74563 | 36057 ft | 433 kts | 256° |
| 2026-05-07 16:57 | 49.17964 | 2.71590 | 36055 ft | 435 kts | 256° |
| 2026-05-07 16:57 | 49.16572 | 2.62580 | 36059 ft | 436 kts | 256° |
| 2026-05-07 16:58 | 49.15162 | 2.53565 | 36064 ft | 436 kts | 256° |
| 2026-05-07 16:58 | 49.13750 | 2.44542 | 36064 ft | 437 kts | 256° |
| 2026-05-07 16:59 | 49.12583 | 2.35445 | 36066 ft | 437 kts | 262° |
| 2026-05-07 16:59 | 49.11747 | 2.26252 | 36068 ft | 437 kts | 261° |
| 2026-05-07 17:00 | 49.10888 | 2.17063 | 36063 ft | 437 kts | 261° |
| 2026-05-07 17:00 | 49.10018 | 2.07883 | 36059 ft | 437 kts | 261° |
| 2026-05-07 17:01 | 49.08262 | 1.99063 | 36056 ft | 436 kts | 245° |
| 2026-05-07 17:01 | 49.05719 | 1.90663 | 36049 ft | 437 kts | 245° |
| 2026-05-07 17:02 | 49.03173 | 1.82250 | 36042 ft | 437 kts | 245° |
| 2026-05-07 17:02 | 49.00637 | 1.73831 | 36044 ft | 437 kts | 245° |
| 2026-05-07 17:03 | 48.98090 | 1.65422 | 36049 ft | 438 kts | 245° |
| 2026-05-07 17:03 | 48.95534 | 1.57012 | 36048 ft | 438 kts | 245° |
| 2026-05-07 17:04 | 48.92991 | 1.48667 | 36044 ft | 438 kts | 245° |
| 2026-05-07 17:04 | 48.90414 | 1.40277 | 36053 ft | 438 kts | 245° |
| 2026-05-07 17:05 | 48.87829 | 1.31905 | 36049 ft | 438 kts | 245° |
| 2026-05-07 17:05 | 48.85246 | 1.23526 | 36049 ft | 438 kts | 245° |
| 2026-05-07 17:06 | 48.82662 | 1.15161 | 36054 ft | 437 kts | 245° |
| 2026-05-07 17:06 | 48.80065 | 1.06810 | 36050 ft | 438 kts | 245° |
| 2026-05-07 17:07 | 48.77454 | 0.98458 | 36051 ft | 438 kts | 245° |
| 2026-05-07 17:07 | 48.74842 | 0.90119 | 36055 ft | 438 kts | 244° |
| 2026-05-07 17:08 | 48.71739 | 0.82188 | 36051 ft | 438 kts | 239° |
| 2026-05-07 17:08 | 48.68559 | 0.74319 | 36056 ft | 438 kts | 239° |
| 2026-05-07 17:09 | 48.65383 | 0.66462 | 36045 ft | 438 kts | 239° |
| 2026-05-07 17:09 | 48.62193 | 0.58617 | 36046 ft | 438 kts | 238° |
| 2026-05-07 17:10 | 48.58990 | 0.50786 | 36036 ft | 438 kts | 238° |
| 2026-05-07 17:10 | 48.55783 | 0.42961 | 36042 ft | 438 kts | 238° |
| 2026-05-07 17:11 | 48.52572 | 0.35149 | 36037 ft | 438 kts | 238° |
| 2026-05-07 17:11 | 48.49354 | 0.27345 | 36035 ft | 439 kts | 238° |
| 2026-05-07 17:12 | 48.46128 | 0.19540 | 36037 ft | 439 kts | 238° |
| 2026-05-07 17:12 | 48.42903 | 0.11743 | 36034 ft | 439 kts | 238° |
| 2026-05-07 17:13 | 48.39672 | 0.03953 | 36033 ft | 438 kts | 238° |
| 2026-05-07 17:13 | 48.36429 | -0.03816 | 36032 ft | 439 kts | 237° |
| 2026-05-07 17:14 | 48.32947 | -0.11352 | 36031 ft | 439 kts | 233° |
| 2026-05-07 17:14 | 48.29230 | -0.18634 | 36029 ft | 439 kts | 232° |
| 2026-05-07 17:15 | 48.25508 | -0.25898 | 36029 ft | 439 kts | 232° |
| 2026-05-07 17:15 | 48.21811 | -0.33183 | 36027 ft | 439 kts | 232° |
| 2026-05-07 17:16 | 48.18098 | -0.40454 | 36029 ft | 440 kts | 232° |
| 2026-05-07 17:16 | 48.14375 | -0.47714 | 36031 ft | 439 kts | 232° |
| 2026-05-07 17:17 | 48.10643 | -0.54957 | 36026 ft | 439 kts | 232° |
| 2026-05-07 17:17 | 48.06945 | -0.62153 | 36021 ft | 439 kts | 232° |
| 2026-05-07 17:18 | 48.03192 | -0.69430 | 36020 ft | 439 kts | 232° |
| 2026-05-07 17:18 | 47.99478 | -0.76598 | 36019 ft | 439 kts | 232° |
| 2026-05-07 17:19 | 47.95736 | -0.83800 | 36022 ft | 438 kts | 232° |
| 2026-05-07 17:19 | 47.91974 | -0.91027 | 36023 ft | 438 kts | 232° |
| 2026-05-07 17:20 | 47.88263 | -0.98139 | 36022 ft | 438 kts | 232° |
| 2026-05-07 17:20 | 47.84522 | -1.05287 | 36021 ft | 437 kts | 232° |
| 2026-05-07 17:21 | 47.80786 | -1.12417 | 36022 ft | 437 kts | 232° |
| 2026-05-07 17:21 | 47.77041 | -1.19546 | 36019 ft | 437 kts | 232° |
| 2026-05-07 17:22 | 47.73286 | -1.26661 | 36019 ft | 438 kts | 231° |
| 2026-05-07 17:22 | 47.69524 | -1.33766 | 36018 ft | 437 kts | 231° |
| 2026-05-07 17:23 | 47.65761 | -1.40857 | 36015 ft | 437 kts | 231° |
| 2026-05-07 17:23 | 47.61995 | -1.47937 | 36012 ft | 437 kts | 231° |
| 2026-05-07 17:24 | 47.58173 | -1.54948 | 36010 ft | 437 kts | 229° |
| 2026-05-07 17:24 | 47.54118 | -1.61660 | 36008 ft | 437 kts | 227° |
| 2026-05-07 17:25 | 47.49977 | -1.68260 | 36004 ft | 438 kts | 227° |
| 2026-05-07 17:25 | 47.45864 | -1.74902 | 36006 ft | 438 kts | 228° |
| 2026-05-07 17:26 | 47.41786 | -1.81592 | 36005 ft | 438 kts | 228° |
| 2026-05-07 17:26 | 47.37711 | -1.88288 | 36005 ft | 438 kts | 228° |
| 2026-05-07 17:27 | 47.33276 | -1.94323 | 36006 ft | 438 kts | 214° |
| 2026-05-07 17:27 | 47.28065 | -1.98995 | 36006 ft | 439 kts | 212° |
| 2026-05-07 17:28 | 47.22848 | -2.03659 | 35998 ft | 438 kts | 212° |
| 2026-05-07 17:28 | 47.17641 | -2.08317 | 35999 ft | 438 kts | 212° |
| 2026-05-07 17:29 | 47.12428 | -2.12967 | 36000 ft | 438 kts | 212° |
| 2026-05-07 17:29 | 47.07208 | -2.17595 | 35999 ft | 438 kts | 212° |
| 2026-05-07 17:30 | 47.01989 | -2.22215 | 36000 ft | 438 kts | 212° |
| 2026-05-07 17:30 | 46.96779 | -2.26817 | 36001 ft | 437 kts | 212° |
| 2026-05-07 17:31 | 46.91577 | -2.31402 | 36002 ft | 436 kts | 212° |
| 2026-05-07 17:31 | 46.86386 | -2.35975 | 35993 ft | 436 kts | 212° |
| 2026-05-07 17:32 | 46.81184 | -2.40548 | 35997 ft | 436 kts | 212° |
| 2026-05-07 17:32 | 46.76860 | -2.44330 | 36001 ft | 436 kts | 212° |
| 2026-05-07 17:33 | 46.70782 | -2.49644 | 35995 ft | 436 kts | 212° |
| 2026-05-07 17:33 | 46.65578 | -2.54180 | 35997 ft | 436 kts | 211° |
| 2026-05-07 17:34 | 46.60377 | -2.58708 | 35999 ft | 435 kts | 211° |
| 2026-05-07 17:34 | 46.55183 | -2.63232 | 35997 ft | 435 kts | 212° |
| 2026-05-07 17:35 | 46.49988 | -2.67745 | 35999 ft | 435 kts | 211° |
| 2026-05-07 17:35 | 46.44792 | -2.72233 | 35994 ft | 434 kts | 211° |
| 2026-05-07 17:36 | 46.39595 | -2.76718 | 35999 ft | 435 kts | 211° |
| 2026-05-07 17:36 | 46.34401 | -2.81189 | 36002 ft | 434 kts | 211° |
| 2026-05-07 17:37 | 46.29206 | -2.85654 | 36003 ft | 434 kts | 211° |
| 2026-05-07 17:37 | 46.24302 | -2.90707 | 36006 ft | 433 kts | 220° |
| 2026-05-07 17:38 | 46.19711 | -2.96339 | 35999 ft | 433 kts | 220° |
| 2026-05-07 17:38 | 46.15105 | -3.01949 | 35999 ft | 433 kts | 220° |
| 2026-05-07 17:39 | 46.10493 | -3.07547 | 35985 ft | 434 kts | 220° |
| 2026-05-07 17:39 | 46.05880 | -3.13147 | 35983 ft | 434 kts | 220° |
| 2026-05-07 17:40 | 46.01255 | -3.18742 | 35982 ft | 434 kts | 220° |
| 2026-05-07 17:40 | 45.96628 | -3.24333 | 35983 ft | 435 kts | 220° |
| 2026-05-07 17:41 | 45.92000 | -3.29930 | 35979 ft | 435 kts | 220° |
| 2026-05-07 17:41 | 45.87400 | -3.35469 | 35980 ft | 434 kts | 220° |
| 2026-05-07 17:42 | 45.82765 | -3.41027 | 35975 ft | 434 kts | 220° |
| 2026-05-07 17:42 | 45.78129 | -3.46574 | 35972 ft | 434 kts | 220° |
| 2026-05-07 17:43 | 45.73498 | -3.52119 | 35967 ft | 434 kts | 220° |
| 2026-05-07 17:43 | 45.68862 | -3.57648 | 35966 ft | 434 kts | 220° |
| 2026-05-07 17:44 | 45.65005 | -3.62239 | 35965 ft | 434 kts | 219° |
| 2026-05-07 17:44 | 45.60356 | -3.67743 | 35963 ft | 434 kts | 219° |
| 2026-05-07 17:45 | 45.55703 | -3.73252 | 35964 ft | 435 kts | 219° |
| 2026-05-07 17:45 | 45.51045 | -3.78777 | 35961 ft | 436 kts | 219° |
| 2026-05-07 17:46 | 45.46378 | -3.84290 | 35960 ft | 436 kts | 219° |
| 2026-05-07 17:46 | 45.41704 | -3.89787 | 35960 ft | 435 kts | 219° |
| 2026-05-07 17:47 | 45.37030 | -3.95273 | 35961 ft | 435 kts | 219° |
| 2026-05-07 17:47 | 45.32357 | -4.00743 | 35960 ft | 435 kts | 219° |
| 2026-05-07 17:48 | 45.27687 | -4.06208 | 35955 ft | 435 kts | 219° |
| 2026-05-07 17:48 | 45.23007 | -4.11666 | 35951 ft | 436 kts | 219° |
| 2026-05-07 17:49 | 45.18319 | -4.17118 | 35947 ft | 436 kts | 219° |
| 2026-05-07 17:49 | 45.13625 | -4.22579 | 35944 ft | 437 kts | 219° |
| 2026-05-07 17:50 | 45.08920 | -4.28042 | 35943 ft | 438 kts | 219° |
| 2026-05-07 17:50 | 45.04204 | -4.33502 | 35940 ft | 438 kts | 219° |
| 2026-05-07 17:51 | 44.99475 | -4.38952 | 35939 ft | 438 kts | 219° |
| 2026-05-07 17:51 | 44.94745 | -4.44392 | 35937 ft | 439 kts | 219° |
| 2026-05-07 17:52 | 44.90012 | -4.49829 | 35940 ft | 439 kts | 219° |
| 2026-05-07 17:52 | 44.85275 | -4.55262 | 35930 ft | 439 kts | 219° |
| 2026-05-07 17:53 | 44.80559 | -4.60657 | 35930 ft | 439 kts | 219° |
| 2026-05-07 17:53 | 44.75785 | -4.66114 | 35927 ft | 439 kts | 219° |
| 2026-05-07 17:54 | 44.71034 | -4.71532 | 35927 ft | 440 kts | 219° |
| 2026-05-07 17:54 | 44.66299 | -4.76904 | 35930 ft | 440 kts | 219° |
| 2026-05-07 17:55 | 44.61527 | -4.82300 | 35928 ft | 441 kts | 219° |
| 2026-05-07 17:55 | 44.56749 | -4.87704 | 35928 ft | 441 kts | 219° |
| 2026-05-07 17:56 | 44.51972 | -4.93109 | 35929 ft | 442 kts | 219° |
| 2026-05-07 17:56 | 44.46886 | -4.97936 | 35927 ft | 442 kts | 213° |
| 2026-05-07 17:57 | 44.42550 | -5.01718 | 35927 ft | 442 kts | 213° |
| 2026-05-07 17:57 | 44.36453 | -5.07048 | 35919 ft | 442 kts | 213° |
| 2026-05-07 17:58 | 44.31232 | -5.11604 | 35915 ft | 443 kts | 213° |
| 2026-05-07 17:58 | 44.25992 | -5.16156 | 35915 ft | 444 kts | 213° |
| 2026-05-07 17:59 | 44.20742 | -5.20701 | 35919 ft | 444 kts | 213° |
| 2026-05-07 17:59 | 44.15486 | -5.25256 | 35917 ft | 445 kts | 213° |
| 2026-05-07 18:00 | 44.10220 | -5.29818 | 35917 ft | 446 kts | 213° |
| 2026-05-07 18:00 | 44.04946 | -5.34363 | 35915 ft | 446 kts | 213° |
| 2026-05-07 18:01 | 43.99662 | -5.38909 | 35914 ft | 447 kts | 213° |
| 2026-05-07 18:01 | 43.94369 | -5.43446 | 35912 ft | 448 kts | 213° |
| 2026-05-07 18:02 | 43.86413 | -5.50257 | 35914 ft | 449 kts | 213° |
| 2026-05-07 18:03 | 43.81095 | -5.54791 | 35915 ft | 449 kts | 213° |
| 2026-05-07 18:03 | 43.75775 | -5.59326 | 35915 ft | 449 kts | 213° |
| 2026-05-07 18:04 | 43.70482 | -5.63825 | 35917 ft | 450 kts | 213° |
| 2026-05-07 18:04 | 43.65140 | -5.68347 | 35920 ft | 450 kts | 213° |
| 2026-05-07 18:05 | 43.59799 | -5.72870 | 35920 ft | 451 kts | 213° |
| 2026-05-07 18:05 | 43.54453 | -5.77383 | 35920 ft | 450 kts | 213° |
| 2026-05-07 18:06 | 43.49102 | -5.81891 | 35922 ft | 451 kts | 213° |
| 2026-05-07 18:06 | 43.43749 | -5.86389 | 35923 ft | 451 kts | 213° |
| 2026-05-07 18:07 | 43.38398 | -5.90886 | 35925 ft | 451 kts | 213° |
| 2026-05-07 18:07 | 43.33049 | -5.95377 | 35924 ft | 450 kts | 213° |
| 2026-05-07 18:08 | 43.27699 | -5.99849 | 35922 ft | 450 kts | 213° |
| 2026-05-07 18:08 | 43.22351 | -6.04307 | 35917 ft | 450 kts | 213° |
| 2026-05-07 18:09 | 43.16995 | -6.08762 | 35914 ft | 451 kts | 213° |
| 2026-05-07 18:09 | 43.11633 | -6.13215 | 35912 ft | 451 kts | 214° |
| 2026-05-07 18:10 | 43.06261 | -6.17669 | 35914 ft | 452 kts | 214° |
| 2026-05-07 18:10 | 43.00884 | -6.22115 | 35916 ft | 452 kts | 214° |
| 2026-05-07 18:11 | 42.95504 | -6.26559 | 35918 ft | 451 kts | 214° |
| 2026-05-07 18:11 | 42.90158 | -6.30966 | 35919 ft | 452 kts | 216° |
| 2026-05-07 18:12 | 42.84773 | -6.35397 | 35923 ft | 451 kts | 216° |
| 2026-05-07 18:12 | 42.79462 | -6.39753 | 35930 ft | 451 kts | 216° |
| 2026-05-07 18:13 | 42.74094 | -6.44141 | 35928 ft | 450 kts | 216° |
| 2026-05-07 18:13 | 42.68744 | -6.48519 | 35926 ft | 448 kts | 217° |
| 2026-05-07 18:14 | 42.63398 | -6.52883 | 35925 ft | 448 kts | 217° |
| 2026-05-07 18:14 | 42.58053 | -6.57226 | 35922 ft | 447 kts | 217° |
| 2026-05-07 18:15 | 42.52691 | -6.61570 | 35924 ft | 447 kts | 217° |
| 2026-05-07 18:15 | 42.47390 | -6.65863 | 35922 ft | 447 kts | 217° |
| 2026-05-07 18:16 | 42.42048 | -6.70187 | 35922 ft | 447 kts | 217° |
| 2026-05-07 18:16 | 42.36710 | -6.74501 | 35923 ft | 446 kts | 217° |
| 2026-05-07 18:17 | 42.31384 | -6.78789 | 35924 ft | 445 kts | 217° |
| 2026-05-07 18:17 | 42.26058 | -6.83059 | 35921 ft | 445 kts | 217° |
| 2026-05-07 18:18 | 42.20770 | -6.87305 | 35925 ft | 444 kts | 217° |
| 2026-05-07 18:18 | 42.15462 | -6.91569 | 35928 ft | 443 kts | 217° |
| 2026-05-07 18:19 | 42.10156 | -6.95814 | 35937 ft | 443 kts | 217° |
| 2026-05-07 18:19 | 42.04844 | -7.00038 | 35931 ft | 443 kts | 217° |
| 2026-05-07 18:20 | 41.99541 | -7.04243 | 35932 ft | 441 kts | 217° |
| 2026-05-07 18:20 | 41.94290 | -7.08433 | 35938 ft | 440 kts | 217° |
| 2026-05-07 18:21 | 41.89022 | -7.12612 | 35940 ft | 438 kts | 217° |
| 2026-05-07 18:21 | 41.83775 | -7.16760 | 35940 ft | 437 kts | 217° |
| 2026-05-07 18:22 | 41.78575 | -7.20868 | 35938 ft | 436 kts | 217° |
| 2026-05-07 18:22 | 41.73349 | -7.24980 | 35937 ft | 435 kts | 217° |
| 2026-05-07 18:23 | 41.68114 | -7.29065 | 35936 ft | 434 kts | 217° |
| 2026-05-07 18:23 | 41.62891 | -7.33101 | 35937 ft | 433 kts | 217° |
| 2026-05-07 18:24 | 41.57684 | -7.37129 | 35934 ft | 432 kts | 217° |
| 2026-05-07 18:24 | 41.52482 | -7.41153 | 35937 ft | 432 kts | 217° |
| 2026-05-07 18:25 | 41.47288 | -7.45171 | 35934 ft | 432 kts | 217° |
| 2026-05-07 18:25 | 41.42091 | -7.49184 | 35931 ft | 431 kts | 217° |
| 2026-05-07 18:26 | 41.36933 | -7.53152 | 35932 ft | 431 kts | 217° |
| 2026-05-07 18:26 | 41.31727 | -7.57140 | 35934 ft | 431 kts | 217° |
| 2026-05-07 18:27 | 41.26523 | -7.61130 | 35934 ft | 430 kts | 217° |
| 2026-05-07 18:27 | 41.21322 | -7.65109 | 35941 ft | 431 kts | 217° |
| 2026-05-07 18:28 | 41.16128 | -7.69077 | 35944 ft | 431 kts | 217° |
| 2026-05-07 18:28 | 41.10960 | -7.73011 | 35945 ft | 430 kts | 217° |
| 2026-05-07 18:29 | 41.05775 | -7.76951 | 35944 ft | 429 kts | 216° |
| 2026-05-07 18:29 | 41.00592 | -7.80884 | 35940 ft | 428 kts | 217° |
| 2026-05-07 18:30 | 40.95429 | -7.84810 | 35942 ft | 427 kts | 217° |
| 2026-05-07 18:30 | 40.90255 | -7.88719 | 35941 ft | 427 kts | 216° |
| 2026-05-07 18:31 | 40.85964 | -7.91953 | 35941 ft | 427 kts | 216° |
| 2026-05-07 18:31 | 40.80803 | -7.95845 | 35942 ft | 427 kts | 217° |
| 2026-05-07 18:32 | 40.74816 | -8.00365 | 35943 ft | 426 kts | 216° |
| 2026-05-07 18:32 | 40.70496 | -8.03611 | 35949 ft | 426 kts | 216° |
| 2026-05-07 18:33 | 40.65396 | -8.07441 | 35948 ft | 424 kts | 216° |
| 2026-05-07 18:33 | 40.60274 | -8.11277 | 35947 ft | 422 kts | 216° |
| 2026-05-07 18:34 | 40.55173 | -8.15087 | 35944 ft | 421 kts | 216° |
| 2026-05-07 18:34 | 40.50077 | -8.18893 | 35944 ft | 421 kts | 216° |
| 2026-05-07 18:34 | 40.47535 | -8.20790 | 35734 ft | 419 kts | 216° |
| 2026-05-07 18:35 | 40.44998 | -8.22676 | 35109 ft | 418 kts | 216° |
| 2026-05-07 18:35 | 40.42501 | -8.24532 | 34340 ft | 418 kts | 216° |
| 2026-05-07 18:35 | 40.39961 | -8.26420 | 33512 ft | 420 kts | 216° |
| 2026-05-07 18:35 | 40.37415 | -8.28313 | 32655 ft | 421 kts | 216° |
| 2026-05-07 18:36 | 40.34848 | -8.30220 | 31699 ft | 425 kts | 215° |
| 2026-05-07 18:36 | 40.32254 | -8.32147 | 30672 ft | 429 kts | 215° |
| 2026-05-07 18:36 | 40.29634 | -8.34090 | 29572 ft | 434 kts | 214° |
| 2026-05-07 18:36 | 40.27019 | -8.36029 | 28461 ft | 439 kts | 214° |
| 2026-05-07 18:37 | 40.24345 | -8.38005 | 27247 ft | 445 kts | 213° |
| 2026-05-07 18:37 | 40.21630 | -8.40010 | 25960 ft | 452 kts | 213° |
| 2026-05-07 18:37 | 40.18866 | -8.42046 | 24570 ft | 459 kts | 212° |
| 2026-05-07 18:37 | 40.16061 | -8.44108 | 23445 ft | 461 kts | 211° |
| 2026-05-07 18:38 | 40.13272 | -8.46159 | 22547 ft | 459 kts | 211° |
| 2026-05-07 18:38 | 40.10475 | -8.48213 | 22156 ft | 459 kts | 211° |
| 2026-05-07 18:38 | 40.07734 | -8.50223 | 21776 ft | 444 kts | 211° |
| 2026-05-07 18:38 | 40.05012 | -8.51996 | 21397 ft | 430 kts | 203° |
| 2026-05-07 18:39 | 40.02212 | -8.53015 | 21035 ft | 417 kts | 191° |
| 2026-05-07 18:39 | 39.99370 | -8.53300 | 20646 ft | 404 kts | 180° |
| 2026-05-07 18:39 | 39.96599 | -8.53083 | 20272 ft | 393 kts | 178° |
| 2026-05-07 18:39 | 39.93901 | -8.52853 | 19925 ft | 383 kts | 178° |
| 2026-05-07 18:40 | 39.91263 | -8.52635 | 19675 ft | 377 kts | 178° |
| 2026-05-07 18:40 | 39.88652 | -8.52423 | 19425 ft | 374 kts | 178° |
| 2026-05-07 18:40 | 39.86060 | -8.52213 | 19175 ft | 373 kts | 178° |
| 2026-05-07 18:40 | 39.83480 | -8.52000 | 18926 ft | 369 kts | 178° |
| 2026-05-07 18:41 | 39.80951 | -8.51786 | 18669 ft | 358 kts | 178° |
| 2026-05-07 18:41 | 39.78500 | -8.51636 | 18420 ft | 346 kts | 183° |
| 2026-05-07 18:41 | 39.76160 | -8.52008 | 18172 ft | 334 kts | 195° |
| 2026-05-07 18:41 | 39.73991 | -8.52946 | 17916 ft | 325 kts | 206° |
| 2026-05-07 18:42 | 39.72049 | -8.54341 | 17674 ft | 321 kts | 212° |
| 2026-05-07 18:42 | 39.70127 | -8.55869 | 17424 ft | 319 kts | 212° |
| 2026-05-07 18:42 | 39.68258 | -8.57346 | 17173 ft | 318 kts | 212° |
| 2026-05-07 18:42 | 39.66373 | -8.58828 | 16920 ft | 316 kts | 211° |
| 2026-05-07 18:43 | 39.64489 | -8.60303 | 16670 ft | 315 kts | 211° |
| 2026-05-07 18:43 | 39.62618 | -8.61771 | 16420 ft | 313 kts | 211° |
| 2026-05-07 18:43 | 39.60761 | -8.63230 | 16167 ft | 311 kts | 211° |
| 2026-05-07 18:43 | 39.58913 | -8.64682 | 15918 ft | 310 kts | 211° |
| 2026-05-07 18:44 | 39.57074 | -8.66124 | 15687 ft | 308 kts | 211° |
| 2026-05-07 18:44 | 39.55239 | -8.67561 | 15430 ft | 307 kts | 211° |
| 2026-05-07 18:44 | 39.53418 | -8.68985 | 15177 ft | 305 kts | 211° |
| 2026-05-07 18:44 | 39.51606 | -8.70403 | 14929 ft | 304 kts | 211° |
| 2026-05-07 18:45 | 39.49796 | -8.71822 | 14676 ft | 302 kts | 211° |
| 2026-05-07 18:45 | 39.48004 | -8.73225 | 14426 ft | 301 kts | 210° |
| 2026-05-07 18:45 | 39.46215 | -8.74622 | 14176 ft | 299 kts | 210° |
| 2026-05-07 18:45 | 39.44456 | -8.75995 | 13939 ft | 298 kts | 210° |
| 2026-05-07 18:46 | 39.42683 | -8.77381 | 13698 ft | 296 kts | 210° |
| 2026-05-07 18:46 | 39.40959 | -8.78834 | 13447 ft | 295 kts | 213° |
| 2026-05-07 18:46 | 39.39284 | -8.80379 | 13195 ft | 294 kts | 214° |
| 2026-05-07 18:46 | 39.37636 | -8.81949 | 12949 ft | 293 kts | 215° |
| 2026-05-07 18:47 | 39.36000 | -8.83528 | 12699 ft | 292 kts | 215° |
| 2026-05-07 18:47 | 39.34390 | -8.85079 | 12451 ft | 291 kts | 215° |
| 2026-05-07 18:47 | 39.32773 | -8.86631 | 12202 ft | 289 kts | 214° |
| 2026-05-07 18:47 | 39.31157 | -8.88174 | 11961 ft | 289 kts | 214° |
| 2026-05-07 18:48 | 39.29544 | -8.89709 | 11711 ft | 287 kts | 214° |
| 2026-05-07 18:48 | 39.27935 | -8.91237 | 11477 ft | 287 kts | 214° |
| 2026-05-07 18:48 | 39.26324 | -8.92765 | 11219 ft | 288 kts | 214° |
| 2026-05-07 18:48 | 39.24705 | -8.94300 | 10978 ft | 288 kts | 214° |
| 2026-05-07 18:49 | 39.23080 | -8.95838 | 10744 ft | 288 kts | 214° |
| 2026-05-07 18:49 | 39.21463 | -8.97366 | 10493 ft | 288 kts | 214° |
| 2026-05-07 18:49 | 39.19873 | -8.98867 | 10246 ft | 287 kts | 214° |
| 2026-05-07 18:49 | 39.18263 | -9.00385 | 10002 ft | 286 kts | 214° |
| 2026-05-07 18:50 | 39.16657 | -9.01897 | 9745 ft | 286 kts | 215° |
| 2026-05-07 18:50 | 39.15056 | -9.03409 | 9489 ft | 285 kts | 215° |
| 2026-05-07 18:50 | 39.13457 | -9.04916 | 9233 ft | 284 kts | 215° |
| 2026-05-07 18:50 | 39.11865 | -9.06417 | 9010 ft | 283 kts | 215° |
| 2026-05-07 18:51 | 39.10277 | -9.07914 | 8769 ft | 282 kts | 215° |
| 2026-05-07 18:51 | 39.08692 | -9.09405 | 8517 ft | 281 kts | 215° |
| 2026-05-07 18:51 | 39.07116 | -9.10890 | 8269 ft | 280 kts | 215° |
| 2026-05-07 18:51 | 39.05542 | -9.12370 | 8034 ft | 279 kts | 215° |
| 2026-05-07 18:52 | 39.03992 | -9.13823 | 7921 ft | 279 kts | 215° |
| 2026-05-07 18:52 | 39.02424 | -9.15293 | 7921 ft | 279 kts | 216° |
| 2026-05-07 18:52 | 39.00854 | -9.16763 | 7924 ft | 279 kts | 215° |
| 2026-05-07 18:52 | 38.99287 | -9.18228 | 7931 ft | 278 kts | 215° |
| 2026-05-07 18:53 | 38.97730 | -9.19690 | 7938 ft | 278 kts | 216° |
| 2026-05-07 18:53 | 38.96170 | -9.21153 | 7935 ft | 278 kts | 216° |
| 2026-05-07 18:53 | 38.94605 | -9.22625 | 7934 ft | 278 kts | 216° |
| 2026-05-07 18:53 | 38.93037 | -9.24099 | 7937 ft | 279 kts | 216° |
| 2026-05-07 18:54 | 38.91481 | -9.25560 | 7942 ft | 279 kts | 215° |
| 2026-05-07 18:54 | 38.89909 | -9.27028 | 7943 ft | 279 kts | 215° |
| 2026-05-07 18:54 | 38.88337 | -9.28495 | 7944 ft | 280 kts | 215° |
| 2026-05-07 18:54 | 38.86760 | -9.29966 | 7943 ft | 279 kts | 215° |
| 2026-05-07 18:55 | 38.85189 | -9.31435 | 7942 ft | 279 kts | 216° |
| 2026-05-07 18:55 | 38.83618 | -9.32903 | 7943 ft | 279 kts | 216° |
| 2026-05-07 18:55 | 38.82049 | -9.34367 | 7943 ft | 279 kts | 215° |
| 2026-05-07 18:55 | 38.80404 | -9.35683 | 7949 ft | 279 kts | 204° |
| 2026-05-07 18:56 | 38.78627 | -9.36691 | 7951 ft | 279 kts | 204° |
| 2026-05-07 18:56 | 38.76873 | -9.37687 | 7944 ft | 279 kts | 204° |
| 2026-05-07 18:56 | 38.75096 | -9.38698 | 7943 ft | 279 kts | 204° |
| 2026-05-07 18:56 | 38.73325 | -9.39706 | 7943 ft | 279 kts | 204° |
| 2026-05-07 18:57 | 38.71546 | -9.40715 | 7943 ft | 279 kts | 204° |
| 2026-05-07 18:57 | 38.69766 | -9.41723 | 7942 ft | 279 kts | 204° |
| 2026-05-07 18:57 | 38.67991 | -9.42724 | 7943 ft | 279 kts | 204° |
| 2026-05-07 18:57 | 38.66220 | -9.43723 | 7952 ft | 279 kts | 204° |
| 2026-05-07 18:58 | 38.64442 | -9.44727 | 7951 ft | 279 kts | 204° |
| 2026-05-07 18:58 | 38.62662 | -9.45730 | 7943 ft | 279 kts | 204° |
| 2026-05-07 18:58 | 38.60883 | -9.46735 | 7943 ft | 279 kts | 204° |
| 2026-05-07 18:58 | 38.59109 | -9.47736 | 7949 ft | 279 kts | 204° |
| 2026-05-07 18:59 | 38.57331 | -9.48738 | 7950 ft | 279 kts | 204° |
| 2026-05-07 18:59 | 38.55596 | -9.49716 | 7941 ft | 269 kts | 204° |
| 2026-05-07 18:59 | 38.53935 | -9.50653 | 7940 ft | 253 kts | 204° |
| 2026-05-07 18:59 | 38.52354 | -9.51543 | 7942 ft | 246 kts | 204° |
| 2026-05-07 19:00 | 38.50723 | -9.52162 | 7943 ft | 246 kts | 186° |
| 2026-05-07 19:00 | 38.49027 | -9.51986 | 7943 ft | 247 kts | 164° |
| 2026-05-07 19:00 | 38.47489 | -9.51022 | 7944 ft | 249 kts | 147° |
| 2026-05-07 19:00 | 38.46051 | -9.49784 | 7943 ft | 247 kts | 148° |
| 2026-05-07 19:01 | 38.44628 | -9.48567 | 7943 ft | 245 kts | 148° |
| 2026-05-07 19:01 | 38.43205 | -9.47358 | 7943 ft | 245 kts | 148° |
| 2026-05-07 19:01 | 38.41838 | -9.46062 | 7944 ft | 246 kts | 137° |
| 2026-05-07 19:01 | 38.40770 | -9.44346 | 7944 ft | 248 kts | 125° |
| 2026-05-07 19:02 | 38.39812 | -9.42514 | 7943 ft | 248 kts | 126° |
| 2026-05-07 19:02 | 38.38865 | -9.40708 | 7943 ft | 248 kts | 126° |
| 2026-05-07 19:02 | 38.37901 | -9.38881 | 7943 ft | 248 kts | 126° |
| 2026-05-07 19:02 | 38.36935 | -9.37054 | 7950 ft | 248 kts | 125° |
| 2026-05-07 19:03 | 38.36172 | -9.35072 | 7953 ft | 251 kts | 109° |
| 2026-05-07 19:03 | 38.35796 | -9.32894 | 7945 ft | 252 kts | 103° |
| 2026-05-07 19:03 | 38.35454 | -9.30698 | 7936 ft | 252 kts | 102° |
| 2026-05-07 19:03 | 38.35458 | -9.28494 | 7935 ft | 255 kts | 77° |
| 2026-05-07 19:04 | 38.36227 | -9.26470 | 7938 ft | 257 kts | 50° |
| 2026-05-07 19:04 | 38.37640 | -9.25087 | 7931 ft | 258 kts | 22° |
| 2026-05-07 19:04 | 38.39372 | -9.24618 | 7660 ft | 254 kts | 1° |
| 2026-05-07 19:04 | 38.41138 | -9.24543 | 7301 ft | 254 kts | 1° |
| 2026-05-07 19:05 | 38.42899 | -9.24469 | 6971 ft | 252 kts | 1° |
| 2026-05-07 19:05 | 38.44648 | -9.24391 | 6646 ft | 250 kts | 1° |
| 2026-05-07 19:05 | 38.46365 | -9.24314 | 6314 ft | 249 kts | 0° |
| 2026-05-07 19:05 | 38.48070 | -9.24233 | 6119 ft | 241 kts | 0° |
| 2026-05-07 19:06 | 38.49737 | -9.24153 | 5822 ft | 238 kts | 0° |
| 2026-05-07 19:06 | 38.53028 | -9.23987 | 5188 ft | 235 kts | 0° |
| 2026-05-07 19:06 | 38.54655 | -9.23903 | 4910 ft | 230 kts | 0° |
| 2026-05-07 19:07 | 38.56208 | -9.23821 | 4769 ft | 218 kts | 360° |
| 2026-05-07 19:07 | 38.57699 | -9.23748 | 4549 ft | 208 kts | 359° |
| 2026-05-07 19:07 | 38.59091 | -9.23639 | 4345 ft | 197 kts | 7° |
| 2026-05-07 19:07 | 38.60413 | -9.23061 | 3865 ft | 204 kts | 20° |
| 2026-05-07 19:08 | 38.61713 | -9.22360 | 3512 ft | 200 kts | 20° |
| 2026-05-07 19:08 | 38.62977 | -9.21680 | 3222 ft | 195 kts | 19° |
| 2026-05-07 19:08 | 38.64205 | -9.21024 | 2968 ft | 193 kts | 19° |
| 2026-05-07 19:08 | 38.65446 | -9.20365 | 2724 ft | 192 kts | 19° |
| 2026-05-07 19:09 | 38.66671 | -9.19711 | 2468 ft | 187 kts | 19° |
| 2026-05-07 19:09 | 38.67814 | -9.19100 | 2217 ft | 169 kts | 19° |
| 2026-05-07 19:09 | 38.68848 | -9.18548 | 2003 ft | 156 kts | 18° |
| 2026-05-07 19:09 | 38.69845 | -9.18022 | 1812 ft | 154 kts | 19° |
| 2026-05-07 19:10 | 38.70832 | -9.17491 | 1618 ft | 153 kts | 18° |
| 2026-05-07 19:10 | 38.71815 | -9.16992 | 1417 ft | 151 kts | 18° |
| 2026-05-07 19:10 | 38.72765 | -9.16474 | 1212 ft | 148 kts | 20° |
| 2026-05-07 19:10 | 38.73702 | -9.15966 | 997 ft | 143 kts | 19° |
| 2026-05-07 19:11 | 38.74607 | -9.15484 | 796 ft | 139 kts | 19° |
| 2026-05-07 19:11 | 38.75514 | -9.14993 | 622 ft | 143 kts | 20° |
| 2026-05-07 19:11 | 38.76431 | -9.14501 | 436 ft | 143 kts | 19° |
| 2026-05-07 19:11 | 38.77321 | -9.14031 | 361 ft | 123 kts | 22° |
| 2026-05-07 19:12 | 38.77939 | -9.13703 | 364 ft | 59 kts | 22° |
| 2026-05-07 19:12 | 38.78172 | -9.13569 | 367 ft | 31 kts | 25° |
| 2026-05-07 19:12 | 38.78337 | -9.13402 | 366 ft | 23 kts | 48° |
| 2026-05-07 19:12 | 38.78381 | -9.13314 | 362 ft | 11 kts | 92° |
| 2026-05-07 19:13 | 38.78324 | -9.13262 | 362 ft | 9 kts | 181° |
| 2026-05-07 19:13 | 38.78258 | -9.13291 | 362 ft | 11 kts | 200° |
| 2026-05-07 19:13 | 38.78188 | -9.13330 | 358 ft | 11 kts | 204° |
| 2026-05-07 19:13 | 38.78129 | -9.13365 | 364 ft | 10 kts | 204° |
| 2026-05-07 19:14 | 38.78081 | -9.13391 | 362 ft | 7 kts | 203° |
| 2026-05-07 19:14 | 38.78026 | -9.13420 | 366 ft | 10 kts | 200° |
| 2026-05-07 19:14 | 38.77935 | -9.13466 | 356 ft | 20 kts | 202° |
| 2026-05-07 19:14 | 38.77850 | -9.13511 | 360 ft | 16 kts | 202° |
| 2026-05-07 19:15 | 38.77730 | -9.13484 | 350 ft | 20 kts | 162° |
| 2026-05-07 19:15 | 38.77646 | -9.13465 | 347 ft | 10 kts | 169° |
| 2026-05-07 19:15 | 38.77566 | -9.13443 | 345 ft | 14 kts | 168° |
| 2026-05-07 19:15 | 38.77459 | -9.13413 | 343 ft | 17 kts | 168° |
| 2026-05-07 19:16 | 38.77377 | -9.13390 | 350 ft | 19 kts | 167° |
| 2026-05-07 19:16 | 38.77241 | -9.13355 | 342 ft | 21 kts | 168° |
| 2026-05-07 19:16 | 38.77103 | -9.13317 | 349 ft | 19 kts | 168° |
| 2026-05-07 19:16 | 38.77027 | -9.13289 | 337 ft | 9 kts | 141° |
| 2026-05-07 19:17 | 38.77031 | -9.13202 | 335 ft | 11 kts | 86° |
| 2026-05-07 19:17 | 38.76970 | -9.13159 | 338 ft | 11 kts | 171° |
| 2026-05-07 19:17 | 38.76929 | -9.13129 | 335 ft | 6 kts | 95° |
| 2026-05-07 19:17 | 38.76932 | -9.13096 | 337 ft | 2 kts | 80° |
| 2026-05-07 19:18 | 38.76935 | -9.13079 | 337 ft | 2 kts | 79° |
| 2026-05-07 19:18 | 38.76936 | -9.13070 | 337 ft | 0 kts | 78° |